sensor_id;sensor_type;location;lat;lon;timestamp;P1;durP1;ratioP1;P2;durP2;ratioP2
21099;SDS011;10708;50.824;4.408;2023-05-16T00:03:10;18.43;;;16.00;;
21099;SDS011;10708;50.824;4.408;2023-05-16T00:08:14;22.33;;;20.07;;
21099;SDS011;10708;50.824;4.408;2023-05-16T00:13:16;18.10;;;13.43;;
21099;SDS011;10708;50.824;4.408;2023-05-16T00:18:21;14.73;;;9.53;;
21099;SDS011;10708;50.824;4.408;2023-05-16T00:23:27;23.73;;;21.70;;
21099;SDS011;10708;50.824;4.408;2023-05-16T00:28:29;28.83;;;25.90;;
21099;SDS011;10708;50.824;4.408;2023-05-16T00:33:32;18.97;;;13.33;;
21099;SDS011;10708;50.824;4.408;2023-05-16T00:38:36;36.30;;;33.40;;
21099;SDS011;10708;50.824;4.408;2023-05-16T00:43:38;6.53;;;5.50;;
21099;SDS011;10708;50.824;4.408;2023-05-16T00:48:40;29.70;;;27.37;;
21099;SDS011;10708;50.824;4.408;2023-05-16T00:53:43;25.03;;;22.77;;
21099;SDS011;10708;50.824;4.408;2023-05-16T00:58:45;13.83;;;9.37;;
21099;SDS011;10708;50.824;4.408;2023-05-16T01:03:47;15.47;;;13.50;;
21099;SDS011;10708;50.824;4.408;2023-05-16T01:08:51;15.27;;;10.77;;
21099;SDS011;10708;50.824;4.408;2023-05-16T01:13:55;13.60;;;12.17;;
21099;SDS011;10708;50.824;4.408;2023-05-16T01:19:13;36.20;;;32.90;;
21099;SDS011;10708;50.824;4.408;2023-05-16T01:24:32;22.20;;;17.60;;
21099;SDS011;10708;50.824;4.408;2023-05-16T01:29:42;17.83;;;8.63;;
21099;SDS011;10708;50.824;4.408;2023-05-16T01:34:44;20.43;;;12.33;;
21099;SDS011;10708;50.824;4.408;2023-05-16T01:39:48;14.57;;;6.63;;
21099;SDS011;10708;50.824;4.408;2023-05-16T01:44:58;18.60;;;5.33;;
21099;SDS011;10708;50.824;4.408;2023-05-16T01:50:06;12.70;;;6.70;;
21099;SDS011;10708;50.824;4.408;2023-05-16T01:55:14;27.50;;;25.23;;
21099;SDS011;10708;50.824;4.408;2023-05-16T02:00:20;15.07;;;11.27;;
21099;SDS011;10708;50.824;4.408;2023-05-16T02:05:23;15.70;;;13.43;;
21099;SDS011;10708;50.824;4.408;2023-05-16T02:10:25;13.93;;;10.73;;
21099;SDS011;10708;50.824;4.408;2023-05-16T02:15:29;17.63;;;13.47;;
21099;SDS011;10708;50.824;4.408;2023-05-16T02:20:31;19.60;;;8.67;;
21099;SDS011;10708;50.824;4.408;2023-05-16T02:25:34;32.03;;;8.50;;
21099;SDS011;10708;50.824;4.408;2023-05-16T02:30:37;20.43;;;18.10;;
21099;SDS011;10708;50.824;4.408;2023-05-16T02:35:39;20.37;;;15.73;;
21099;SDS011;10708;50.824;4.408;2023-05-16T02:40:41;20.17;;;18.27;;
21099;SDS011;10708;50.824;4.408;2023-05-16T02:45:45;9.10;;;8.17;;
21099;SDS011;10708;50.824;4.408;2023-05-16T02:50:47;11.83;;;10.80;;
21099;SDS011;10708;50.824;4.408;2023-05-16T02:55:49;23.20;;;7.83;;
21099;SDS011;10708;50.824;4.408;2023-05-16T03:00:52;9.40;;;5.80;;
21099;SDS011;10708;50.824;4.408;2023-05-16T03:05:54;18.93;;;10.43;;
21099;SDS011;10708;50.824;4.408;2023-05-16T03:10:56;15.03;;;8.00;;
21099;SDS011;10708;50.824;4.408;2023-05-16T03:15:59;20.97;;;8.70;;
21099;SDS011;10708;50.824;4.408;2023-05-16T03:21:02;40.27;;;36.77;;
21099;SDS011;10708;50.824;4.408;2023-05-16T03:26:04;12.97;;;11.00;;
21099;SDS011;10708;50.824;4.408;2023-05-16T03:31:08;15.40;;;5.70;;
21099;SDS011;10708;50.824;4.408;2023-05-16T03:36:10;15.10;;;8.13;;
21099;SDS011;10708;50.824;4.408;2023-05-16T03:41:12;9.20;;;5.30;;
21099;SDS011;10708;50.824;4.408;2023-05-16T03:46:15;9.23;;;4.83;;
21099;SDS011;10708;50.824;4.408;2023-05-16T03:51:18;12.83;;;8.73;;
21099;SDS011;10708;50.824;4.408;2023-05-16T03:56:20;16.50;;;15.17;;
21099;SDS011;10708;50.824;4.408;2023-05-16T04:01:24;15.77;;;4.30;;
21099;SDS011;10708;50.824;4.408;2023-05-16T04:06:26;18.07;;;5.17;;
21099;SDS011;10708;50.824;4.408;2023-05-16T04:11:27;15.67;;;4.60;;
21099;SDS011;10708;50.824;4.408;2023-05-16T04:16:31;5.93;;;4.63;;
21099;SDS011;10708;50.824;4.408;2023-05-16T04:21:33;14.90;;;4.90;;
21099;SDS011;10708;50.824;4.408;2023-05-16T04:26:36;12.00;;;4.10;;
21099;SDS011;10708;50.824;4.408;2023-05-16T04:31:39;15.40;;;7.53;;
21099;SDS011;10708;50.824;4.408;2023-05-16T04:36:41;10.93;;;5.30;;
21099;SDS011;10708;50.824;4.408;2023-05-16T04:41:43;19.30;;;5.33;;
21099;SDS011;10708;50.824;4.408;2023-05-16T04:46:47;11.27;;;5.13;;
21099;SDS011;10708;50.824;4.408;2023-05-16T04:51:49;14.17;;;4.87;;
21099;SDS011;10708;50.824;4.408;2023-05-16T04:56:51;12.70;;;9.87;;
21099;SDS011;10708;50.824;4.408;2023-05-16T05:01:56;23.87;;;22.17;;
21099;SDS011;10708;50.824;4.408;2023-05-16T05:06:58;17.73;;;4.90;;
21099;SDS011;10708;50.824;4.408;2023-05-16T05:12:00;16.97;;;14.00;;
21099;SDS011;10708;50.824;4.408;2023-05-16T05:17:04;40.73;;;38.03;;
21099;SDS011;10708;50.824;4.408;2023-05-16T05:22:06;25.70;;;23.47;;
21099;SDS011;10708;50.824;4.408;2023-05-16T05:27:08;13.57;;;7.17;;
21099;SDS011;10708;50.824;4.408;2023-05-16T05:32:12;11.70;;;7.40;;
21099;SDS011;10708;50.824;4.408;2023-05-16T05:37:14;12.83;;;7.20;;
21099;SDS011;10708;50.824;4.408;2023-05-16T05:42:16;12.70;;;8.70;;
21099;SDS011;10708;50.824;4.408;2023-05-16T05:47:19;9.50;;;6.67;;
21099;SDS011;10708;50.824;4.408;2023-05-16T05:52:21;10.53;;;9.50;;
21099;SDS011;10708;50.824;4.408;2023-05-16T05:57:24;19.03;;;5.03;;
21099;SDS011;10708;50.824;4.408;2023-05-16T06:02:27;85.03;;;79.40;;
21099;SDS011;10708;50.824;4.408;2023-05-16T06:07:30;34.77;;;32.20;;
21099;SDS011;10708;50.824;4.408;2023-05-16T06:12:32;22.60;;;5.47;;
21099;SDS011;10708;50.824;4.408;2023-05-16T06:17:35;14.17;;;6.23;;
21099;SDS011;10708;50.824;4.408;2023-05-16T06:22:41;18.00;;;14.67;;
21099;SDS011;10708;50.824;4.408;2023-05-16T06:27:43;87.30;;;82.40;;
21099;SDS011;10708;50.824;4.408;2023-05-16T06:32:47;19.90;;;18.43;;
21099;SDS011;10708;50.824;4.408;2023-05-16T06:37:49;21.97;;;20.00;;
21099;SDS011;10708;50.824;4.408;2023-05-16T06:42:55;12.83;;;4.20;;
21099;SDS011;10708;50.824;4.408;2023-05-16T06:47:59;193.20;;;182.27;;
21099;SDS011;10708;50.824;4.408;2023-05-16T06:53:02;97.83;;;91.73;;
21099;SDS011;10708;50.824;4.408;2023-05-16T06:58:07;75.55;;;71.18;;
21099;SDS011;10708;50.824;4.408;2023-05-16T07:03:11;65.27;;;61.10;;
21099;SDS011;10708;50.824;4.408;2023-05-16T07:08:16;52.08;;;48.88;;
21099;SDS011;10708;50.824;4.408;2023-05-16T07:13:19;99.17;;;93.20;;
21099;SDS011;10708;50.824;4.408;2023-05-16T07:18:23;246.30;;;232.60;;
21099;SDS011;10708;50.824;4.408;2023-05-16T07:23:26;132.47;;;125.17;;
21099;SDS011;10708;50.824;4.408;2023-05-16T07:28:28;213.87;;;202.17;;
21099;SDS011;10708;50.824;4.408;2023-05-16T07:33:32;308.40;;;290.43;;
21099;SDS011;10708;50.824;4.408;2023-05-16T07:38:34;98.80;;;93.20;;
21099;SDS011;10708;50.824;4.408;2023-05-16T07:43:36;169.95;;;160.75;;
21099;SDS011;10708;50.824;4.408;2023-05-16T07:48:41;675.65;;;628.35;;
21099;SDS011;10708;50.824;4.408;2023-05-16T07:53:44;377.85;;;355.50;;
21099;SDS011;10708;50.824;4.408;2023-05-16T07:58:48;64.45;;;59.88;;
21099;SDS011;10708;50.824;4.408;2023-05-16T08:03:52;84.10;;;79.20;;
21099;SDS011;10708;50.824;4.408;2023-05-16T08:08:54;149.82;;;141.20;;
21099;SDS011;10708;50.824;4.408;2023-05-16T08:13:58;181.73;;;171.57;;
21099;SDS011;10708;50.824;4.408;2023-05-16T08:19:01;349.25;;;329.63;;
21099;SDS011;10708;50.824;4.408;2023-05-16T08:24:04;78.15;;;73.25;;
21099;SDS011;10708;50.824;4.408;2023-05-16T08:29:07;122.63;;;115.18;;
21099;SDS011;10708;50.824;4.408;2023-05-16T08:34:11;458.88;;;431.98;;
21099;SDS011;10708;50.824;4.408;2023-05-16T08:39:13;128.18;;;121.22;;
21099;SDS011;10708;50.824;4.408;2023-05-16T08:44:15;137.80;;;130.30;;
21099;SDS011;10708;50.824;4.408;2023-05-16T08:49:22;57.22;;;53.95;;
21099;SDS011;10708;50.824;4.408;2023-05-16T08:54:29;44.30;;;41.75;;
21099;SDS011;10708;50.824;4.408;2023-05-16T08:59:32;64.63;;;60.53;;
21099;SDS011;10708;50.824;4.408;2023-05-16T09:04:37;46.42;;;43.65;;
21099;SDS011;10708;50.824;4.408;2023-05-16T09:09:40;90.20;;;85.00;;
21099;SDS011;10708;50.824;4.408;2023-05-16T09:14:43;188.70;;;179.13;;
21099;SDS011;10708;50.824;4.408;2023-05-16T09:19:48;123.15;;;116.25;;
21099;SDS011;10708;50.824;4.408;2023-05-16T09:24:52;86.93;;;81.80;;
21099;SDS011;10708;50.824;4.408;2023-05-16T09:29:54;126.15;;;118.82;;
21099;SDS011;10708;50.824;4.408;2023-05-16T09:35:00;94.15;;;89.00;;
21099;SDS011;10708;50.824;4.408;2023-05-16T09:40:03;189.50;;;179.18;;
21099;SDS011;10708;50.824;4.408;2023-05-16T09:45:07;202.45;;;191.75;;
21099;SDS011;10708;50.824;4.408;2023-05-16T09:50:16;215.73;;;204.82;;
21099;SDS011;10708;50.824;4.408;2023-05-16T09:55:20;302.75;;;286.67;;
21099;SDS011;10708;50.824;4.408;2023-05-16T10:00:27;314.38;;;297.88;;
21099;SDS011;10708;50.824;4.408;2023-05-16T10:05:33;282.05;;;267.55;;
21099;SDS011;10708;50.824;4.408;2023-05-16T10:10:36;204.40;;;193.73;;
21099;SDS011;10708;50.824;4.408;2023-05-16T10:15:40;204.57;;;194.20;;
21099;SDS011;10708;50.824;4.408;2023-05-16T10:20:44;216.65;;;205.38;;
21099;SDS011;10708;50.824;4.408;2023-05-16T10:25:50;157.65;;;149.23;;
21099;SDS011;10708;50.824;4.408;2023-05-16T10:30:53;88.75;;;84.00;;
21099;SDS011;10708;50.824;4.408;2023-05-16T10:35:58;102.28;;;97.10;;
21099;SDS011;10708;50.824;4.408;2023-05-16T10:41:04;102.00;;;96.25;;
21099;SDS011;10708;50.824;4.408;2023-05-16T10:46:07;89.18;;;84.70;;
21099;SDS011;10708;50.824;4.408;2023-05-16T10:56:35;105.40;;;100.05;;
21099;SDS011;10708;50.824;4.408;2023-05-16T11:01:39;103.20;;;97.85;;
21099;SDS011;10708;50.824;4.408;2023-05-16T11:06:48;115.20;;;109.00;;
21099;SDS011;10708;50.824;4.408;2023-05-16T11:11:53;124.80;;;118.15;;
21099;SDS011;10708;50.824;4.408;2023-05-16T11:17:01;103.10;;;97.70;;
21099;SDS011;10708;50.824;4.408;2023-05-16T11:22:09;115.50;;;108.88;;
21099;SDS011;10708;50.824;4.408;2023-05-16T11:27:18;70.57;;;66.72;;
21099;SDS011;10708;50.824;4.408;2023-05-16T11:32:22;89.22;;;84.38;;
21099;SDS011;10708;50.824;4.408;2023-05-16T11:37:27;71.30;;;67.25;;
21099;SDS011;10708;50.824;4.408;2023-05-16T11:42:29;72.78;;;68.97;;
21099;SDS011;10708;50.824;4.408;2023-05-16T11:47:33;83.57;;;78.97;;
21099;SDS011;10708;50.824;4.408;2023-05-16T11:52:39;104.22;;;98.13;;
21099;SDS011;10708;50.824;4.408;2023-05-16T11:57:43;81.13;;;75.97;;
21099;SDS011;10708;50.824;4.408;2023-05-16T12:02:47;220.40;;;208.80;;
21099;SDS011;10708;50.824;4.408;2023-05-16T12:07:51;112.20;;;106.35;;
21099;SDS011;10708;50.824;4.408;2023-05-16T12:12:54;132.45;;;125.50;;
21099;SDS011;10708;50.824;4.408;2023-05-16T12:17:56;117.05;;;110.30;;
21099;SDS011;10708;50.824;4.408;2023-05-16T12:23:00;185.32;;;175.45;;
21099;SDS011;10708;50.824;4.408;2023-05-16T12:28:03;125.63;;;119.03;;
21099;SDS011;10708;50.824;4.408;2023-05-16T12:33:07;150.02;;;142.18;;
21099;SDS011;10708;50.824;4.408;2023-05-16T12:38:12;193.23;;;183.20;;
21099;SDS011;10708;50.824;4.408;2023-05-16T12:43:18;237.48;;;225.05;;
21099;SDS011;10708;50.824;4.408;2023-05-16T12:48:22;139.00;;;131.30;;
21099;SDS011;10708;50.824;4.408;2023-05-16T12:53:27;177.10;;;168.02;;
21099;SDS011;10708;50.824;4.408;2023-05-16T12:58:30;155.98;;;147.95;;
21099;SDS011;10708;50.824;4.408;2023-05-16T13:03:33;145.27;;;137.65;;
21099;SDS011;10708;50.824;4.408;2023-05-16T13:08:37;199.07;;;188.90;;
21099;SDS011;10708;50.824;4.408;2023-05-16T13:13:39;170.45;;;161.75;;
21099;SDS011;10708;50.824;4.408;2023-05-16T13:18:41;164.55;;;156.40;;
21099;SDS011;10708;50.824;4.408;2023-05-16T13:23:45;177.80;;;168.20;;
21099;SDS011;10708;50.824;4.408;2023-05-16T13:28:47;118.32;;;112.07;;
21099;SDS011;10708;50.824;4.408;2023-05-16T13:33:52;155.55;;;147.60;;
21099;SDS011;10708;50.824;4.408;2023-05-16T13:38:55;189.70;;;180.07;;
21099;SDS011;10708;50.824;4.408;2023-05-16T13:43:57;170.20;;;161.50;;
21099;SDS011;10708;50.824;4.408;2023-05-16T13:49:00;135.32;;;128.15;;
21099;SDS011;10708;50.824;4.408;2023-05-16T13:54:03;122.05;;;115.55;;
21099;SDS011;10708;50.824;4.408;2023-05-16T13:59:06;126.20;;;119.75;;
21099;SDS011;10708;50.824;4.408;2023-05-16T14:04:08;119.22;;;112.95;;
21099;SDS011;10708;50.824;4.408;2023-05-16T14:09:13;121.75;;;115.53;;
21099;SDS011;10708;50.824;4.408;2023-05-16T14:14:18;149.35;;;141.88;;
21099;SDS011;10708;50.824;4.408;2023-05-16T14:19:20;178.60;;;169.75;;
21099;SDS011;10708;50.824;4.408;2023-05-16T14:24:24;175.10;;;166.20;;
21099;SDS011;10708;50.824;4.408;2023-05-16T14:29:27;167.55;;;158.90;;
21099;SDS011;10708;50.824;4.408;2023-05-16T14:34:29;161.00;;;152.85;;
21099;SDS011;10708;50.824;4.408;2023-05-16T14:39:33;187.20;;;177.43;;
21099;SDS011;10708;50.824;4.408;2023-05-16T14:44:35;189.15;;;179.60;;
21099;SDS011;10708;50.824;4.408;2023-05-16T14:49:37;196.80;;;187.10;;
21099;SDS011;10708;50.824;4.408;2023-05-16T14:54:41;175.95;;;167.23;;
21099;SDS011;10708;50.824;4.408;2023-05-16T14:59:43;168.50;;;160.07;;
21099;SDS011;10708;50.824;4.408;2023-05-16T15:04:46;139.40;;;132.48;;
21099;SDS011;10708;50.824;4.408;2023-05-16T15:09:50;138.90;;;131.88;;
21099;SDS011;10708;50.824;4.408;2023-05-16T15:14:53;120.20;;;113.68;;
21099;SDS011;10708;50.824;4.408;2023-05-16T15:19:57;133.27;;;126.55;;
21099;SDS011;10708;50.824;4.408;2023-05-16T15:25:05;138.95;;;131.93;;
21099;SDS011;10708;50.824;4.408;2023-05-16T15:30:10;131.45;;;124.80;;
21099;SDS011;10708;50.824;4.408;2023-05-16T15:35:13;127.63;;;121.15;;
21099;SDS011;10708;50.824;4.408;2023-05-16T15:40:17;133.30;;;126.53;;
21099;SDS011;10708;50.824;4.408;2023-05-16T15:45:20;149.80;;;142.13;;
21099;SDS011;10708;50.824;4.408;2023-05-16T15:50:23;132.05;;;125.43;;
21099;SDS011;10708;50.824;4.408;2023-05-16T15:55:26;130.15;;;123.55;;
21099;SDS011;10708;50.824;4.408;2023-05-16T16:00:28;145.15;;;137.88;;
21099;SDS011;10708;50.824;4.408;2023-05-16T16:05:31;175.48;;;166.52;;
21099;SDS011;10708;50.824;4.408;2023-05-16T16:10:35;125.50;;;119.00;;
21099;SDS011;10708;50.824;4.408;2023-05-16T16:15:37;131.98;;;124.85;;
21099;SDS011;10708;50.824;4.408;2023-05-16T16:20:41;84.78;;;80.35;;
21099;SDS011;10708;50.824;4.408;2023-05-16T16:25:45;70.65;;;66.65;;
21099;SDS011;10708;50.824;4.408;2023-05-16T16:30:48;46.03;;;43.45;;
21099;SDS011;10708;50.824;4.408;2023-05-16T16:35:50;45.22;;;42.75;;
21099;SDS011;10708;50.824;4.408;2023-05-16T16:40:56;47.55;;;45.10;;
21099;SDS011;10708;50.824;4.408;2023-05-16T16:45:58;35.50;;;33.30;;
21099;SDS011;10708;50.824;4.408;2023-05-16T16:51:00;35.53;;;33.45;;
21099;SDS011;10708;50.824;4.408;2023-05-16T16:56:06;28.65;;;27.17;;
21099;SDS011;10708;50.824;4.408;2023-05-16T17:01:08;43.97;;;41.67;;
21099;SDS011;10708;50.824;4.408;2023-05-16T17:06:11;35.13;;;33.05;;
21099;SDS011;10708;50.824;4.408;2023-05-16T17:11:15;179.45;;;170.00;;
21099;SDS011;10708;50.824;4.408;2023-05-16T17:16:22;177.95;;;169.00;;
21099;SDS011;10708;50.824;4.408;2023-05-16T17:21:24;256.95;;;243.52;;
21099;SDS011;10708;50.824;4.408;2023-05-16T17:26:31;210.60;;;199.82;;
21099;SDS011;10708;50.824;4.408;2023-05-16T17:31:42;229.13;;;217.45;;
21099;SDS011;10708;50.824;4.408;2023-05-16T17:36:44;259.63;;;246.27;;
21099;SDS011;10708;50.824;4.408;2023-05-16T17:41:48;335.35;;;317.73;;
21099;SDS011;10708;50.824;4.408;2023-05-16T17:46:53;339.30;;;321.27;;
21099;SDS011;10708;50.824;4.408;2023-05-16T17:51:55;332.15;;;314.38;;
21099;SDS011;10708;50.824;4.408;2023-05-16T17:57:01;397.88;;;375.58;;
21099;SDS011;10708;50.824;4.408;2023-05-16T18:02:05;365.20;;;345.42;;
21099;SDS011;10708;50.824;4.408;2023-05-16T18:07:09;398.15;;;376.23;;
21099;SDS011;10708;50.824;4.408;2023-05-16T18:12:13;473.75;;;446.30;;
21099;SDS011;10708;50.824;4.408;2023-05-16T18:17:15;510.00;;;479.35;;
21099;SDS011;10708;50.824;4.408;2023-05-16T18:22:17;453.90;;;427.95;;
21099;SDS011;10708;50.824;4.408;2023-05-16T18:27:21;381.83;;;360.70;;
21099;SDS011;10708;50.824;4.408;2023-05-16T18:32:23;414.15;;;390.63;;
21099;SDS011;10708;50.824;4.408;2023-05-16T18:37:25;432.10;;;407.38;;
21099;SDS011;10708;50.824;4.408;2023-05-16T18:42:29;320.10;;;303.00;;
21099;SDS011;10708;50.824;4.408;2023-05-16T18:47:31;331.25;;;313.05;;
21099;SDS011;10708;50.824;4.408;2023-05-16T18:52:33;377.23;;;356.25;;
21099;SDS011;10708;50.824;4.408;2023-05-16T18:57:37;176.70;;;167.63;;
21099;SDS011;10708;50.824;4.408;2023-05-16T19:02:39;207.00;;;196.45;;
21099;SDS011;10708;50.824;4.408;2023-05-16T19:07:41;190.02;;;180.07;;
21099;SDS011;10708;50.824;4.408;2023-05-16T19:12:45;86.82;;;82.22;;
21099;SDS011;10708;50.824;4.408;2023-05-16T19:17:48;731.35;;;678.13;;
21099;SDS011;10708;50.824;4.408;2023-05-16T19:22:50;563.20;;;527.70;;
21099;SDS011;10708;50.824;4.408;2023-05-16T19:27:54;158.75;;;150.40;;
21099;SDS011;10708;50.824;4.408;2023-05-16T19:32:56;168.70;;;159.65;;
21099;SDS011;10708;50.824;4.408;2023-05-16T19:37:58;78.05;;;73.78;;
21099;SDS011;10708;50.824;4.408;2023-05-16T19:43:02;106.82;;;100.90;;
21099;SDS011;10708;50.824;4.408;2023-05-16T19:48:04;96.50;;;91.38;;
21099;SDS011;10708;50.824;4.408;2023-05-16T19:58:32;76.10;;;71.47;;
21099;SDS011;10708;50.824;4.408;2023-05-16T20:03:34;176.02;;;166.75;;
21099;SDS011;10708;50.824;4.408;2023-05-16T20:08:37;358.95;;;339.13;;
21099;SDS011;10708;50.824;4.408;2023-05-16T20:13:42;61.38;;;57.90;;
21099;SDS011;10708;50.824;4.408;2023-05-16T20:18:44;403.27;;;380.43;;
21099;SDS011;10708;50.824;4.408;2023-05-16T20:23:46;126.13;;;118.90;;
21099;SDS011;10708;50.824;4.408;2023-05-16T20:28:50;144.52;;;136.65;;
21099;SDS011;10708;50.824;4.408;2023-05-16T20:33:52;56.60;;;53.43;;
21099;SDS011;10708;50.824;4.408;2023-05-16T20:38:54;101.47;;;95.83;;
21099;SDS011;10708;50.824;4.408;2023-05-16T20:43:57;191.53;;;181.03;;
21099;SDS011;10708;50.824;4.408;2023-05-16T20:48:59;71.77;;;67.20;;
21099;SDS011;10708;50.824;4.408;2023-05-16T20:54:01;154.07;;;144.97;;
21099;SDS011;10708;50.824;4.408;2023-05-16T20:59:05;112.80;;;106.23;;
21099;SDS011;10708;50.824;4.408;2023-05-16T21:04:07;147.80;;;139.87;;
21099;SDS011;10708;50.824;4.408;2023-05-16T21:09:09;132.10;;;124.67;;
21099;SDS011;10708;50.824;4.408;2023-05-16T21:14:13;201.13;;;188.30;;
21099;SDS011;10708;50.824;4.408;2023-05-16T21:19:16;89.63;;;83.87;;
21099;SDS011;10708;50.824;4.408;2023-05-16T21:24:18;100.40;;;93.80;;
21099;SDS011;10708;50.824;4.408;2023-05-16T21:29:22;47.53;;;43.93;;
21099;SDS011;10708;50.824;4.408;2023-05-16T21:34:24;275.83;;;259.77;;
21099;SDS011;10708;50.824;4.408;2023-05-16T21:39:26;177.00;;;167.50;;
21099;SDS011;10708;50.824;4.408;2023-05-16T21:44:29;111.87;;;105.63;;
21099;SDS011;10708;50.824;4.408;2023-05-16T21:49:31;75.93;;;71.07;;
21099;SDS011;10708;50.824;4.408;2023-05-16T21:54:35;83.73;;;78.63;;
21099;SDS011;10708;50.824;4.408;2023-05-16T21:59:39;35.73;;;32.93;;
21099;SDS011;10708;50.824;4.408;2023-05-16T22:04:41;172.87;;;163.20;;
21099;SDS011;10708;50.824;4.408;2023-05-16T22:09:43;44.57;;;41.40;;
21099;SDS011;10708;50.824;4.408;2023-05-16T22:14:46;140.80;;;132.63;;
21099;SDS011;10708;50.824;4.408;2023-05-16T22:19:49;248.67;;;234.80;;
21099;SDS011;10708;50.824;4.408;2023-05-16T22:24:51;93.63;;;88.37;;
21099;SDS011;10708;50.824;4.408;2023-05-16T22:29:54;85.97;;;80.27;;
21099;SDS011;10708;50.824;4.408;2023-05-16T22:34:56;91.80;;;86.17;;
21099;SDS011;10708;50.824;4.408;2023-05-16T22:39:58;35.03;;;32.40;;
21099;SDS011;10708;50.824;4.408;2023-05-16T22:45:02;127.13;;;120.00;;
21099;SDS011;10708;50.824;4.408;2023-05-16T22:50:04;72.50;;;68.37;;
21099;SDS011;10708;50.824;4.408;2023-05-16T22:55:07;43.93;;;40.73;;
21099;SDS011;10708;50.824;4.408;2023-05-16T23:00:11;34.87;;;31.80;;
21099;SDS011;10708;50.824;4.408;2023-05-16T23:05:13;27.67;;;25.20;;
21099;SDS011;10708;50.824;4.408;2023-05-16T23:10:15;35.93;;;33.23;;
21099;SDS011;10708;50.824;4.408;2023-05-16T23:15:19;25.70;;;23.67;;
21099;SDS011;10708;50.824;4.408;2023-05-16T23:20:21;35.03;;;31.23;;
21099;SDS011;10708;50.824;4.408;2023-05-16T23:25:23;20.30;;;13.07;;
21099;SDS011;10708;50.824;4.408;2023-05-16T23:30:26;88.97;;;83.73;;
21099;SDS011;10708;50.824;4.408;2023-05-16T23:35:28;11.57;;;6.63;;
21099;SDS011;10708;50.824;4.408;2023-05-16T23:40:30;24.17;;;22.57;;
21099;SDS011;10708;50.824;4.408;2023-05-16T23:45:34;18.77;;;16.87;;
21099;SDS011;10708;50.824;4.408;2023-05-16T23:50:36;14.53;;;9.87;;
21099;SDS011;10708;50.824;4.408;2023-05-16T23:55:38;15.30;;;8.77;;
